sensor_id;sensor_type;location;lat;lon;timestamp;P1;durP1;ratioP1;P2;durP2;ratioP2
74469;SDS011;62918;55.706;37.816;2023-08-06T00:00:24;11.88;;;5.93;;
74469;SDS011;62918;55.706;37.816;2023-08-06T00:00:55;9.95;;;7.00;;
74469;SDS011;62918;55.706;37.816;2023-08-06T00:01:25;11.05;;;6.30;;
74469;SDS011;62918;55.706;37.816;2023-08-06T00:01:56;8.57;;;6.53;;
74469;SDS011;62918;55.706;37.816;2023-08-06T00:02:26;14.00;;;6.95;;
74469;SDS011;62918;55.706;37.816;2023-08-06T00:02:57;11.07;;;6.13;;
74469;SDS011;62918;55.706;37.816;2023-08-06T00:03:27;10.90;;;6.38;;
74469;SDS011;62918;55.706;37.816;2023-08-06T00:03:58;8.45;;;6.25;;
74469;SDS011;62918;55.706;37.816;2023-08-06T00:04:30;14.32;;;7.32;;
74469;SDS011;62918;55.706;37.816;2023-08-06T00:05:00;10.88;;;6.43;;
74469;SDS011;62918;55.706;37.816;2023-08-06T00:05:31;9.13;;;6.32;;
74469;SDS011;62918;55.706;37.816;2023-08-06T00:06:02;9.45;;;6.00;;
74469;SDS011;62918;55.706;37.816;2023-08-06T00:06:34;9.23;;;6.53;;
74469;SDS011;62918;55.706;37.816;2023-08-06T00:07:05;10.45;;;6.20;;
74469;SDS011;62918;55.706;37.816;2023-08-06T00:07:35;12.25;;;7.50;;
74469;SDS011;62918;55.706;37.816;2023-08-06T00:08:06;10.80;;;6.32;;
74469;SDS011;62918;55.706;37.816;2023-08-06T00:08:36;11.80;;;7.68;;
74469;SDS011;62918;55.706;37.816;2023-08-06T00:09:07;8.90;;;6.13;;
74469;SDS011;62918;55.706;37.816;2023-08-06T00:09:38;11.98;;;7.00;;
74469;SDS011;62918;55.706;37.816;2023-08-06T00:10:09;11.75;;;6.15;;
74469;SDS011;62918;55.706;37.816;2023-08-06T00:10:39;10.27;;;7.40;;
74469;SDS011;62918;55.706;37.816;2023-08-06T00:11:11;12.23;;;6.18;;
74469;SDS011;62918;55.706;37.816;2023-08-06T00:11:42;9.77;;;6.70;;
74469;SDS011;62918;55.706;37.816;2023-08-06T00:12:14;10.10;;;6.30;;
74469;SDS011;62918;55.706;37.816;2023-08-06T00:12:44;10.43;;;6.97;;
74469;SDS011;62918;55.706;37.816;2023-08-06T00:13:15;9.95;;;6.15;;
74469;SDS011;62918;55.706;37.816;2023-08-06T00:13:45;11.40;;;7.13;;
74469;SDS011;62918;55.706;37.816;2023-08-06T00:14:16;11.32;;;7.07;;
74469;SDS011;62918;55.706;37.816;2023-08-06T00:14:51;11.35;;;6.75;;
74469;SDS011;62918;55.706;37.816;2023-08-06T00:15:22;11.10;;;6.47;;
74469;SDS011;62918;55.706;37.816;2023-08-06T00:15:52;10.48;;;6.15;;
74469;SDS011;62918;55.706;37.816;2023-08-06T00:16:23;10.82;;;7.57;;
74469;SDS011;62918;55.706;37.816;2023-08-06T00:16:53;14.13;;;6.82;;
74469;SDS011;62918;55.706;37.816;2023-08-06T00:17:24;10.77;;;6.32;;
74469;SDS011;62918;55.706;37.816;2023-08-06T00:17:54;12.93;;;6.97;;
74469;SDS011;62918;55.706;37.816;2023-08-06T00:18:25;9.35;;;6.55;;
74469;SDS011;62918;55.706;37.816;2023-08-06T00:18:56;9.60;;;7.05;;
74469;SDS011;62918;55.706;37.816;2023-08-06T00:19:26;9.38;;;6.78;;
74469;SDS011;62918;55.706;37.816;2023-08-06T00:19:56;10.25;;;6.30;;
74469;SDS011;62918;55.706;37.816;2023-08-06T00:20:27;13.85;;;6.88;;
74469;SDS011;62918;55.706;37.816;2023-08-06T00:20:58;9.00;;;6.30;;
74469;SDS011;62918;55.706;37.816;2023-08-06T00:21:28;9.15;;;6.90;;
74469;SDS011;62918;55.706;37.816;2023-08-06T00:21:59;11.98;;;7.43;;
74469;SDS011;62918;55.706;37.816;2023-08-06T00:22:38;10.48;;;6.72;;
74469;SDS011;62918;55.706;37.816;2023-08-06T00:23:09;12.02;;;6.93;;
74469;SDS011;62918;55.706;37.816;2023-08-06T00:23:39;8.57;;;6.43;;
74469;SDS011;62918;55.706;37.816;2023-08-06T00:24:11;13.27;;;6.68;;
74469;SDS011;62918;55.706;37.816;2023-08-06T00:24:41;9.27;;;6.47;;
74469;SDS011;62918;55.706;37.816;2023-08-06T00:25:12;10.73;;;5.78;;
74469;SDS011;62918;55.706;37.816;2023-08-06T00:25:42;9.52;;;6.63;;
74469;SDS011;62918;55.706;37.816;2023-08-06T00:26:13;11.93;;;6.80;;
74469;SDS011;62918;55.706;37.816;2023-08-06T00:26:43;12.32;;;7.03;;
74469;SDS011;62918;55.706;37.816;2023-08-06T00:27:14;9.80;;;6.57;;
74469;SDS011;62918;55.706;37.816;2023-08-06T00:27:44;10.10;;;6.55;;
74469;SDS011;62918;55.706;37.816;2023-08-06T00:28:15;12.02;;;6.75;;
74469;SDS011;62918;55.706;37.816;2023-08-06T00:28:45;12.77;;;6.97;;
74469;SDS011;62918;55.706;37.816;2023-08-06T00:29:16;9.68;;;5.88;;
74469;SDS011;62918;55.706;37.816;2023-08-06T00:29:46;10.95;;;7.00;;
74469;SDS011;62918;55.706;37.816;2023-08-06T00:30:17;9.43;;;6.90;;
74469;SDS011;62918;55.706;37.816;2023-08-06T00:30:54;8.45;;;6.88;;
74469;SDS011;62918;55.706;37.816;2023-08-06T00:31:25;12.27;;;7.03;;
74469;SDS011;62918;55.706;37.816;2023-08-06T00:31:55;12.52;;;6.63;;
74469;SDS011;62918;55.706;37.816;2023-08-06T00:32:26;10.38;;;6.10;;
74469;SDS011;62918;55.706;37.816;2023-08-06T00:32:58;12.30;;;6.72;;
74469;SDS011;62918;55.706;37.816;2023-08-06T00:33:28;9.75;;;7.10;;
74469;SDS011;62918;55.706;37.816;2023-08-06T00:33:59;13.48;;;6.97;;
74469;SDS011;62918;55.706;37.816;2023-08-06T00:34:29;11.55;;;7.15;;
74469;SDS011;62918;55.706;37.816;2023-08-06T00:35:00;12.45;;;6.93;;
74469;SDS011;62918;55.706;37.816;2023-08-06T00:35:30;9.48;;;6.63;;
74469;SDS011;62918;55.706;37.816;2023-08-06T00:36:01;12.02;;;6.93;;
74469;SDS011;62918;55.706;37.816;2023-08-06T00:36:31;14.02;;;6.85;;
74469;SDS011;62918;55.706;37.816;2023-08-06T00:37:02;11.48;;;6.43;;
74469;SDS011;62918;55.706;37.816;2023-08-06T00:37:32;12.80;;;6.85;;
74469;SDS011;62918;55.706;37.816;2023-08-06T00:38:03;11.30;;;7.85;;
74469;SDS011;62918;55.706;37.816;2023-08-06T00:38:33;11.23;;;6.88;;
74469;SDS011;62918;55.706;37.816;2023-08-06T00:39:04;10.48;;;7.30;;
74469;SDS011;62918;55.706;37.816;2023-08-06T00:39:34;10.80;;;6.80;;
74469;SDS011;62918;55.706;37.816;2023-08-06T00:40:06;13.32;;;7.60;;
74469;SDS011;62918;55.706;37.816;2023-08-06T00:40:37;9.13;;;6.65;;
74469;SDS011;62918;55.706;37.816;2023-08-06T00:41:08;10.00;;;6.85;;
74469;SDS011;62918;55.706;37.816;2023-08-06T00:41:38;9.68;;;6.80;;
74469;SDS011;62918;55.706;37.816;2023-08-06T00:42:09;11.82;;;7.00;;
74469;SDS011;62918;55.706;37.816;2023-08-06T00:42:40;9.80;;;7.03;;
74469;SDS011;62918;55.706;37.816;2023-08-06T00:43:11;10.23;;;7.93;;
74469;SDS011;62918;55.706;37.816;2023-08-06T00:43:41;13.63;;;7.53;;
74469;SDS011;62918;55.706;37.816;2023-08-06T00:44:12;13.63;;;6.93;;
74469;SDS011;62918;55.706;37.816;2023-08-06T00:44:42;10.98;;;7.03;;
74469;SDS011;62918;55.706;37.816;2023-08-06T00:45:13;10.38;;;7.38;;
74469;SDS011;62918;55.706;37.816;2023-08-06T00:45:43;13.68;;;7.38;;
74469;SDS011;62918;55.706;37.816;2023-08-06T00:46:14;12.07;;;7.07;;
74469;SDS011;62918;55.706;37.816;2023-08-06T00:46:45;11.98;;;7.25;;
74469;SDS011;62918;55.706;37.816;2023-08-06T00:47:15;14.90;;;7.43;;
74469;SDS011;62918;55.706;37.816;2023-08-06T00:47:46;11.25;;;8.02;;
74469;SDS011;62918;55.706;37.816;2023-08-06T00:48:17;10.30;;;7.07;;
74469;SDS011;62918;55.706;37.816;2023-08-06T00:48:49;11.40;;;6.93;;
74469;SDS011;62918;55.706;37.816;2023-08-06T00:49:21;9.50;;;7.20;;
74469;SDS011;62918;55.706;37.816;2023-08-06T00:49:51;11.55;;;6.97;;
74469;SDS011;62918;55.706;37.816;2023-08-06T00:50:22;11.95;;;7.55;;
74469;SDS011;62918;55.706;37.816;2023-08-06T00:50:52;13.20;;;8.05;;
74469;SDS011;62918;55.706;37.816;2023-08-06T00:51:23;12.00;;;8.05;;
74469;SDS011;62918;55.706;37.816;2023-08-06T00:51:55;8.82;;;7.40;;
74469;SDS011;62918;55.706;37.816;2023-08-06T00:52:26;9.70;;;7.00;;
74469;SDS011;62918;55.706;37.816;2023-08-06T00:52:57;11.30;;;7.18;;
74469;SDS011;62918;55.706;37.816;2023-08-06T00:53:28;11.15;;;7.55;;
74469;SDS011;62918;55.706;37.816;2023-08-06T00:53:59;10.75;;;6.90;;
74469;SDS011;62918;55.706;37.816;2023-08-06T00:54:30;11.35;;;7.40;;
74469;SDS011;62918;55.706;37.816;2023-08-06T00:55:01;11.75;;;7.45;;
74469;SDS011;62918;55.706;37.816;2023-08-06T00:55:34;11.02;;;6.85;;
74469;SDS011;62918;55.706;37.816;2023-08-06T00:56:05;8.93;;;6.68;;
74469;SDS011;62918;55.706;37.816;2023-08-06T00:56:36;12.43;;;7.45;;
74469;SDS011;62918;55.706;37.816;2023-08-06T00:57:07;12.82;;;7.88;;
74469;SDS011;62918;55.706;37.816;2023-08-06T00:57:39;11.43;;;7.20;;
74469;SDS011;62918;55.706;37.816;2023-08-06T00:58:10;11.80;;;7.63;;
74469;SDS011;62918;55.706;37.816;2023-08-06T00:58:41;12.77;;;7.35;;
74469;SDS011;62918;55.706;37.816;2023-08-06T00:59:12;13.15;;;8.02;;
74469;SDS011;62918;55.706;37.816;2023-08-06T00:59:44;13.43;;;7.55;;
74469;SDS011;62918;55.706;37.816;2023-08-06T01:00:15;10.05;;;6.82;;
74469;SDS011;62918;55.706;37.816;2023-08-06T01:00:46;14.95;;;7.93;;
74469;SDS011;62918;55.706;37.816;2023-08-06T01:01:16;10.45;;;7.25;;
74469;SDS011;62918;55.706;37.816;2023-08-06T01:01:47;10.25;;;7.00;;
74469;SDS011;62918;55.706;37.816;2023-08-06T01:02:18;11.75;;;7.68;;
74469;SDS011;62918;55.706;37.816;2023-08-06T01:02:48;10.95;;;7.80;;
74469;SDS011;62918;55.706;37.816;2023-08-06T01:03:19;10.13;;;8.00;;
74469;SDS011;62918;55.706;37.816;2023-08-06T01:03:49;11.38;;;7.90;;
74469;SDS011;62918;55.706;37.816;2023-08-06T01:04:20;11.30;;;7.10;;
74469;SDS011;62918;55.706;37.816;2023-08-06T01:04:52;11.00;;;7.47;;
74469;SDS011;62918;55.706;37.816;2023-08-06T01:05:22;10.40;;;7.63;;
74469;SDS011;62918;55.706;37.816;2023-08-06T01:05:53;14.50;;;7.75;;
74469;SDS011;62918;55.706;37.816;2023-08-06T01:06:32;11.38;;;7.40;;
74469;SDS011;62918;55.706;37.816;2023-08-06T01:07:29;11.38;;;8.02;;
74469;SDS011;62918;55.706;37.816;2023-08-06T01:08:51;13.63;;;7.60;;
74469;SDS011;62918;55.706;37.816;2023-08-06T01:13:24;11.32;;;7.82;;
74469;SDS011;62918;55.706;37.816;2023-08-06T01:15:22;10.85;;;7.55;;
74469;SDS011;62918;55.706;37.816;2023-08-06T01:15:58;10.55;;;6.97;;
74469;SDS011;62918;55.706;37.816;2023-08-06T01:16:32;10.68;;;7.57;;
74469;SDS011;62918;55.706;37.816;2023-08-06T01:17:03;10.88;;;7.88;;
74469;SDS011;62918;55.706;37.816;2023-08-06T01:17:35;11.20;;;7.82;;
74469;SDS011;62918;55.706;37.816;2023-08-06T01:18:06;11.07;;;8.13;;
74469;SDS011;62918;55.706;37.816;2023-08-06T01:18:37;14.10;;;7.43;;
74469;SDS011;62918;55.706;37.816;2023-08-06T01:19:18;12.68;;;7.82;;
74469;SDS011;62918;55.706;37.816;2023-08-06T01:19:49;9.20;;;6.53;;
74469;SDS011;62918;55.706;37.816;2023-08-06T01:20:20;9.85;;;7.35;;
74469;SDS011;62918;55.706;37.816;2023-08-06T01:20:50;10.95;;;7.20;;
74469;SDS011;62918;55.706;37.816;2023-08-06T01:21:21;10.73;;;7.30;;
74469;SDS011;62918;55.706;37.816;2023-08-06T01:21:52;11.63;;;7.60;;
74469;SDS011;62918;55.706;37.816;2023-08-06T01:22:22;10.18;;;7.03;;
74469;SDS011;62918;55.706;37.816;2023-08-06T01:22:53;9.60;;;6.95;;
74469;SDS011;62918;55.706;37.816;2023-08-06T01:23:23;10.80;;;7.32;;
74469;SDS011;62918;55.706;37.816;2023-08-06T01:23:55;11.68;;;7.45;;
74469;SDS011;62918;55.706;37.816;2023-08-06T01:24:25;10.65;;;8.23;;
74469;SDS011;62918;55.706;37.816;2023-08-06T01:24:56;10.73;;;7.50;;
74469;SDS011;62918;55.706;37.816;2023-08-06T01:25:30;14.48;;;8.43;;
74469;SDS011;62918;55.706;37.816;2023-08-06T01:27:03;11.65;;;7.90;;
74469;SDS011;62918;55.706;37.816;2023-08-06T01:28:23;12.98;;;7.53;;
74469;SDS011;62918;55.706;37.816;2023-08-06T01:29:20;9.48;;;7.35;;
74469;SDS011;62918;55.706;37.816;2023-08-06T01:30:06;12.48;;;7.40;;
74469;SDS011;62918;55.706;37.816;2023-08-06T01:30:39;11.30;;;7.15;;
74469;SDS011;62918;55.706;37.816;2023-08-06T01:31:27;10.68;;;6.82;;
74469;SDS011;62918;55.706;37.816;2023-08-06T01:32:01;10.98;;;7.55;;
74469;SDS011;62918;55.706;37.816;2023-08-06T01:32:34;11.18;;;6.57;;
74469;SDS011;62918;55.706;37.816;2023-08-06T01:33:05;13.15;;;7.85;;
74469;SDS011;62918;55.706;37.816;2023-08-06T01:33:40;10.02;;;7.95;;
74469;SDS011;62918;55.706;37.816;2023-08-06T01:34:17;11.13;;;8.10;;
74469;SDS011;62918;55.706;37.816;2023-08-06T01:34:50;11.55;;;7.30;;
74469;SDS011;62918;55.706;37.816;2023-08-06T01:35:23;12.65;;;7.93;;
74469;SDS011;62918;55.706;37.816;2023-08-06T01:35:56;11.40;;;8.02;;
74469;SDS011;62918;55.706;37.816;2023-08-06T01:36:28;14.13;;;7.90;;
74469;SDS011;62918;55.706;37.816;2023-08-06T01:37:00;10.43;;;8.27;;
74469;SDS011;62918;55.706;37.816;2023-08-06T01:37:31;10.38;;;7.90;;
74469;SDS011;62918;55.706;37.816;2023-08-06T01:38:03;11.40;;;7.93;;
74469;SDS011;62918;55.706;37.816;2023-08-06T01:38:33;12.02;;;8.40;;
74469;SDS011;62918;55.706;37.816;2023-08-06T01:39:04;11.43;;;7.30;;
74469;SDS011;62918;55.706;37.816;2023-08-06T01:39:35;10.30;;;7.88;;
74469;SDS011;62918;55.706;37.816;2023-08-06T01:40:09;14.98;;;8.25;;
74469;SDS011;62918;55.706;37.816;2023-08-06T01:40:40;13.93;;;7.22;;
74469;SDS011;62918;55.706;37.816;2023-08-06T01:41:11;11.05;;;7.90;;
74469;SDS011;62918;55.706;37.816;2023-08-06T01:41:41;11.27;;;7.35;;
74469;SDS011;62918;55.706;37.816;2023-08-06T01:42:12;9.85;;;7.20;;
74469;SDS011;62918;55.706;37.816;2023-08-06T01:42:42;13.77;;;9.02;;
74469;SDS011;62918;55.706;37.816;2023-08-06T01:43:13;12.15;;;7.93;;
74469;SDS011;62918;55.706;37.816;2023-08-06T01:43:43;12.65;;;7.78;;
74469;SDS011;62918;55.706;37.816;2023-08-06T01:44:15;12.95;;;8.55;;
74469;SDS011;62918;55.706;37.816;2023-08-06T01:44:46;10.80;;;7.57;;
74469;SDS011;62918;55.706;37.816;2023-08-06T01:45:16;11.88;;;7.53;;
74469;SDS011;62918;55.706;37.816;2023-08-06T01:45:47;10.80;;;7.68;;
74469;SDS011;62918;55.706;37.816;2023-08-06T01:46:17;10.52;;;7.57;;
74469;SDS011;62918;55.706;37.816;2023-08-06T01:46:48;12.25;;;8.43;;
74469;SDS011;62918;55.706;37.816;2023-08-06T01:47:18;13.10;;;8.23;;
74469;SDS011;62918;55.706;37.816;2023-08-06T01:47:49;15.77;;;8.70;;
74469;SDS011;62918;55.706;37.816;2023-08-06T01:48:19;12.27;;;8.18;;
74469;SDS011;62918;55.706;37.816;2023-08-06T01:48:50;11.90;;;7.50;;
74469;SDS011;62918;55.706;37.816;2023-08-06T01:49:20;13.07;;;7.85;;
74469;SDS011;62918;55.706;37.816;2023-08-06T01:49:51;11.43;;;7.90;;
74469;SDS011;62918;55.706;37.816;2023-08-06T01:50:21;13.05;;;8.13;;
74469;SDS011;62918;55.706;37.816;2023-08-06T01:50:52;17.70;;;8.10;;
74469;SDS011;62918;55.706;37.816;2023-08-06T01:51:22;12.48;;;7.82;;
74469;SDS011;62918;55.706;37.816;2023-08-06T01:51:53;11.48;;;7.88;;
74469;SDS011;62918;55.706;37.816;2023-08-06T01:52:23;12.43;;;7.38;;
74469;SDS011;62918;55.706;37.816;2023-08-06T01:52:54;11.90;;;7.60;;
74469;SDS011;62918;55.706;37.816;2023-08-06T01:53:24;11.07;;;7.55;;
74469;SDS011;62918;55.706;37.816;2023-08-06T01:53:55;10.23;;;8.13;;
74469;SDS011;62918;55.706;37.816;2023-08-06T01:54:25;11.18;;;8.05;;
74469;SDS011;62918;55.706;37.816;2023-08-06T01:54:57;14.90;;;7.97;;
74469;SDS011;62918;55.706;37.816;2023-08-06T01:55:29;12.50;;;7.63;;
74469;SDS011;62918;55.706;37.816;2023-08-06T01:56:00;13.98;;;7.85;;
74469;SDS011;62918;55.706;37.816;2023-08-06T01:56:31;13.50;;;7.65;;
74469;SDS011;62918;55.706;37.816;2023-08-06T01:57:01;13.90;;;7.97;;
74469;SDS011;62918;55.706;37.816;2023-08-06T01:57:32;11.88;;;8.02;;
74469;SDS011;62918;55.706;37.816;2023-08-06T01:58:03;13.52;;;8.82;;
74469;SDS011;62918;55.706;37.816;2023-08-06T01:58:33;14.88;;;8.02;;
74469;SDS011;62918;55.706;37.816;2023-08-06T01:59:04;12.75;;;8.93;;
74469;SDS011;62918;55.706;37.816;2023-08-06T01:59:34;13.07;;;8.90;;
74469;SDS011;62918;55.706;37.816;2023-08-06T02:00:05;11.93;;;8.23;;
74469;SDS011;62918;55.706;37.816;2023-08-06T02:00:36;13.88;;;8.75;;
74469;SDS011;62918;55.706;37.816;2023-08-06T02:01:07;13.10;;;8.05;;
74469;SDS011;62918;55.706;37.816;2023-08-06T02:01:37;12.73;;;8.07;;
74469;SDS011;62918;55.706;37.816;2023-08-06T02:02:07;11.90;;;8.40;;
74469;SDS011;62918;55.706;37.816;2023-08-06T02:02:38;13.65;;;7.60;;
74469;SDS011;62918;55.706;37.816;2023-08-06T02:03:41;14.93;;;8.52;;
74469;SDS011;62918;55.706;37.816;2023-08-06T02:04:11;12.80;;;8.30;;
74469;SDS011;62918;55.706;37.816;2023-08-06T02:04:42;11.27;;;7.95;;
74469;SDS011;62918;55.706;37.816;2023-08-06T02:05:12;13.43;;;9.07;;
74469;SDS011;62918;55.706;37.816;2023-08-06T02:05:43;13.52;;;8.38;;
74469;SDS011;62918;55.706;37.816;2023-08-06T02:06:13;11.18;;;7.75;;
74469;SDS011;62918;55.706;37.816;2023-08-06T02:06:44;13.27;;;8.77;;
74469;SDS011;62918;55.706;37.816;2023-08-06T02:07:15;15.88;;;9.02;;
74469;SDS011;62918;55.706;37.816;2023-08-06T02:07:45;11.98;;;8.75;;
74469;SDS011;62918;55.706;37.816;2023-08-06T02:08:16;13.35;;;9.05;;
74469;SDS011;62918;55.706;37.816;2023-08-06T02:08:46;12.27;;;7.93;;
74469;SDS011;62918;55.706;37.816;2023-08-06T02:09:17;12.68;;;8.50;;
74469;SDS011;62918;55.706;37.816;2023-08-06T02:09:47;13.80;;;9.73;;
74469;SDS011;62918;55.706;37.816;2023-08-06T02:10:18;13.38;;;8.60;;
74469;SDS011;62918;55.706;37.816;2023-08-06T02:10:49;13.15;;;8.07;;
74469;SDS011;62918;55.706;37.816;2023-08-06T02:11:19;12.23;;;7.85;;
74469;SDS011;62918;55.706;37.816;2023-08-06T02:11:50;14.25;;;9.50;;
74469;SDS011;62918;55.706;37.816;2023-08-06T02:12:21;13.77;;;8.80;;
74469;SDS011;62918;55.706;37.816;2023-08-06T02:12:51;11.60;;;8.73;;
74469;SDS011;62918;55.706;37.816;2023-08-06T02:13:22;12.30;;;9.05;;
74469;SDS011;62918;55.706;37.816;2023-08-06T02:13:52;14.20;;;8.38;;
74469;SDS011;62918;55.706;37.816;2023-08-06T02:14:23;12.48;;;8.90;;
74469;SDS011;62918;55.706;37.816;2023-08-06T02:14:53;12.57;;;8.13;;
74469;SDS011;62918;55.706;37.816;2023-08-06T02:15:24;12.50;;;9.32;;
74469;SDS011;62918;55.706;37.816;2023-08-06T02:15:55;11.75;;;8.70;;
74469;SDS011;62918;55.706;37.816;2023-08-06T02:16:25;14.13;;;9.43;;
74469;SDS011;62918;55.706;37.816;2023-08-06T02:16:56;14.02;;;8.82;;
74469;SDS011;62918;55.706;37.816;2023-08-06T02:17:26;14.00;;;9.05;;
74469;SDS011;62918;55.706;37.816;2023-08-06T02:17:57;11.00;;;8.27;;
74469;SDS011;62918;55.706;37.816;2023-08-06T02:18:27;13.43;;;8.80;;
74469;SDS011;62918;55.706;37.816;2023-08-06T02:18:58;11.88;;;8.32;;
74469;SDS011;62918;55.706;37.816;2023-08-06T02:19:30;12.73;;;8.60;;
74469;SDS011;62918;55.706;37.816;2023-08-06T02:20:01;12.95;;;8.57;;
74469;SDS011;62918;55.706;37.816;2023-08-06T02:20:31;14.10;;;9.13;;
74469;SDS011;62918;55.706;37.816;2023-08-06T02:21:02;12.60;;;8.65;;
74469;SDS011;62918;55.706;37.816;2023-08-06T02:21:32;14.68;;;9.90;;
74469;SDS011;62918;55.706;37.816;2023-08-06T02:22:03;12.73;;;9.75;;
74469;SDS011;62918;55.706;37.816;2023-08-06T02:22:34;14.82;;;9.45;;
74469;SDS011;62918;55.706;37.816;2023-08-06T02:23:04;12.73;;;9.02;;
74469;SDS011;62918;55.706;37.816;2023-08-06T02:23:35;13.43;;;8.52;;
74469;SDS011;62918;55.706;37.816;2023-08-06T02:24:05;13.63;;;9.55;;
74469;SDS011;62918;55.706;37.816;2023-08-06T02:24:36;13.05;;;9.25;;
74469;SDS011;62918;55.706;37.816;2023-08-06T02:25:06;16.23;;;9.60;;
74469;SDS011;62918;55.706;37.816;2023-08-06T02:25:37;16.75;;;9.05;;
74469;SDS011;62918;55.706;37.816;2023-08-06T02:26:08;13.38;;;8.75;;
74469;SDS011;62918;55.706;37.816;2023-08-06T02:26:38;14.50;;;9.50;;
74469;SDS011;62918;55.706;37.816;2023-08-06T02:27:09;15.18;;;8.80;;
74469;SDS011;62918;55.706;37.816;2023-08-06T02:27:39;12.77;;;9.45;;
74469;SDS011;62918;55.706;37.816;2023-08-06T02:28:10;12.18;;;8.85;;
74469;SDS011;62918;55.706;37.816;2023-08-06T02:28:40;13.75;;;9.90;;
74469;SDS011;62918;55.706;37.816;2023-08-06T02:29:11;12.68;;;9.70;;
74469;SDS011;62918;55.706;37.816;2023-08-06T02:29:41;16.35;;;9.95;;
74469;SDS011;62918;55.706;37.816;2023-08-06T02:30:12;14.52;;;9.52;;
74469;SDS011;62918;55.706;37.816;2023-08-06T02:30:49;18.65;;;9.27;;
74469;SDS011;62918;55.706;37.816;2023-08-06T02:31:20;16.10;;;9.60;;
74469;SDS011;62918;55.706;37.816;2023-08-06T02:31:51;13.90;;;10.07;;
74469;SDS011;62918;55.706;37.816;2023-08-06T02:32:22;19.23;;;9.40;;
74469;SDS011;62918;55.706;37.816;2023-08-06T02:32:52;15.02;;;9.77;;
74469;SDS011;62918;55.706;37.816;2023-08-06T02:33:23;11.98;;;9.23;;
74469;SDS011;62918;55.706;37.816;2023-08-06T02:33:53;12.23;;;8.88;;
74469;SDS011;62918;55.706;37.816;2023-08-06T02:34:24;12.13;;;8.82;;
74469;SDS011;62918;55.706;37.816;2023-08-06T02:34:55;13.98;;;9.80;;
74469;SDS011;62918;55.706;37.816;2023-08-06T02:35:25;16.17;;;8.95;;
74469;SDS011;62918;55.706;37.816;2023-08-06T02:36:01;14.35;;;8.52;;
74469;SDS011;62918;55.706;37.816;2023-08-06T02:36:36;19.52;;;10.10;;
74469;SDS011;62918;55.706;37.816;2023-08-06T02:37:07;19.73;;;10.55;;
74469;SDS011;62918;55.706;37.816;2023-08-06T02:37:37;14.10;;;9.77;;
74469;SDS011;62918;55.706;37.816;2023-08-06T02:38:08;14.30;;;9.75;;
74469;SDS011;62918;55.706;37.816;2023-08-06T02:38:38;15.63;;;9.88;;
74469;SDS011;62918;55.706;37.816;2023-08-06T02:39:09;15.32;;;9.77;;
74469;SDS011;62918;55.706;37.816;2023-08-06T02:39:40;16.50;;;10.07;;
74469;SDS011;62918;55.706;37.816;2023-08-06T02:40:10;17.23;;;9.85;;
74469;SDS011;62918;55.706;37.816;2023-08-06T02:40:44;13.23;;;10.93;;
74469;SDS011;62918;55.706;37.816;2023-08-06T02:41:15;15.52;;;9.95;;
74469;SDS011;62918;55.706;37.816;2023-08-06T02:41:46;14.18;;;9.32;;
74469;SDS011;62918;55.706;37.816;2023-08-06T02:42:16;12.43;;;8.98;;
74469;SDS011;62918;55.706;37.816;2023-08-06T02:42:47;14.57;;;9.35;;
74469;SDS011;62918;55.706;37.816;2023-08-06T02:43:17;15.77;;;9.75;;
74469;SDS011;62918;55.706;37.816;2023-08-06T02:43:48;14.63;;;9.48;;
74469;SDS011;62918;55.706;37.816;2023-08-06T02:44:18;13.77;;;9.95;;
74469;SDS011;62918;55.706;37.816;2023-08-06T02:44:49;18.75;;;9.65;;
74469;SDS011;62918;55.706;37.816;2023-08-06T02:45:19;12.52;;;9.35;;
74469;SDS011;62918;55.706;37.816;2023-08-06T02:45:50;12.98;;;9.50;;
74469;SDS011;62918;55.706;37.816;2023-08-06T02:46:20;13.95;;;9.40;;
74469;SDS011;62918;55.706;37.816;2023-08-06T02:46:51;17.00;;;9.45;;
74469;SDS011;62918;55.706;37.816;2023-08-06T02:47:21;13.10;;;9.73;;
74469;SDS011;62918;55.706;37.816;2023-08-06T02:47:52;15.85;;;10.15;;
74469;SDS011;62918;55.706;37.816;2023-08-06T02:48:22;16.77;;;9.40;;
74469;SDS011;62918;55.706;37.816;2023-08-06T02:48:53;15.80;;;10.05;;
74469;SDS011;62918;55.706;37.816;2023-08-06T02:49:23;12.20;;;9.05;;
74469;SDS011;62918;55.706;37.816;2023-08-06T02:49:54;11.13;;;8.98;;
74469;SDS011;62918;55.706;37.816;2023-08-06T02:50:25;17.17;;;10.63;;
74469;SDS011;62918;55.706;37.816;2023-08-06T02:50:58;14.40;;;10.23;;
74469;SDS011;62918;55.706;37.816;2023-08-06T02:51:29;16.48;;;9.90;;
74469;SDS011;62918;55.706;37.816;2023-08-06T02:52:00;15.07;;;9.98;;
74469;SDS011;62918;55.706;37.816;2023-08-06T02:52:30;15.20;;;10.25;;
74469;SDS011;62918;55.706;37.816;2023-08-06T02:53:01;14.50;;;9.48;;
74469;SDS011;62918;55.706;37.816;2023-08-06T02:53:31;16.52;;;10.40;;
74469;SDS011;62918;55.706;37.816;2023-08-06T02:54:02;15.02;;;8.77;;
74469;SDS011;62918;55.706;37.816;2023-08-06T02:54:32;15.00;;;9.23;;
74469;SDS011;62918;55.706;37.816;2023-08-06T02:55:03;14.68;;;10.02;;
74469;SDS011;62918;55.706;37.816;2023-08-06T02:55:34;12.93;;;9.32;;
74469;SDS011;62918;55.706;37.816;2023-08-06T02:56:05;13.50;;;10.23;;
74469;SDS011;62918;55.706;37.816;2023-08-06T02:56:35;11.88;;;8.90;;
74469;SDS011;62918;55.706;37.816;2023-08-06T02:57:06;13.70;;;8.90;;
74469;SDS011;62918;55.706;37.816;2023-08-06T02:57:37;15.55;;;8.93;;
74469;SDS011;62918;55.706;37.816;2023-08-06T02:58:07;15.70;;;9.07;;
74469;SDS011;62918;55.706;37.816;2023-08-06T02:58:38;13.85;;;9.38;;
74469;SDS011;62918;55.706;37.816;2023-08-06T02:59:08;13.77;;;9.52;;
74469;SDS011;62918;55.706;37.816;2023-08-06T02:59:39;16.63;;;9.52;;
74469;SDS011;62918;55.706;37.816;2023-08-06T03:00:09;15.32;;;9.23;;
74469;SDS011;62918;55.706;37.816;2023-08-06T03:01:13;12.40;;;9.60;;
74469;SDS011;62918;55.706;37.816;2023-08-06T03:01:44;16.33;;;10.15;;
74469;SDS011;62918;55.706;37.816;2023-08-06T03:02:14;13.70;;;10.40;;
74469;SDS011;62918;55.706;37.816;2023-08-06T03:02:45;14.00;;;9.57;;
74469;SDS011;62918;55.706;37.816;2023-08-06T03:03:15;13.82;;;9.80;;
74469;SDS011;62918;55.706;37.816;2023-08-06T03:03:46;13.13;;;9.15;;
74469;SDS011;62918;55.706;37.816;2023-08-06T03:04:16;15.35;;;10.10;;
74469;SDS011;62918;55.706;37.816;2023-08-06T03:04:48;18.60;;;9.77;;
74469;SDS011;62918;55.706;37.816;2023-08-06T03:05:18;14.38;;;9.45;;
74469;SDS011;62918;55.706;37.816;2023-08-06T03:05:53;14.57;;;10.50;;
74469;SDS011;62918;55.706;37.816;2023-08-06T03:06:24;14.13;;;9.43;;
74469;SDS011;62918;55.706;37.816;2023-08-06T03:06:54;13.75;;;10.13;;
74469;SDS011;62918;55.706;37.816;2023-08-06T03:07:24;15.32;;;10.02;;
74469;SDS011;62918;55.706;37.816;2023-08-06T03:07:55;15.88;;;10.48;;
74469;SDS011;62918;55.706;37.816;2023-08-06T03:08:26;15.27;;;10.13;;
74469;SDS011;62918;55.706;37.816;2023-08-06T03:08:56;13.85;;;10.18;;
74469;SDS011;62918;55.706;37.816;2023-08-06T03:09:27;13.57;;;10.25;;
74469;SDS011;62918;55.706;37.816;2023-08-06T03:09:57;14.52;;;9.35;;
74469;SDS011;62918;55.706;37.816;2023-08-06T03:10:28;15.93;;;9.80;;
74469;SDS011;62918;55.706;37.816;2023-08-06T03:10:58;12.95;;;10.02;;
74469;SDS011;62918;55.706;37.816;2023-08-06T03:11:29;16.08;;;9.85;;
74469;SDS011;62918;55.706;37.816;2023-08-06T03:11:59;14.23;;;9.95;;